sensor_id;sensor_type;location;lat;lon;timestamp;temperature;humidity
8858;DHT22;4465;50.904;4.696;2023-03-01T00:00:47;-0.70;99.90
8858;DHT22;4465;50.904;4.696;2023-03-01T00:03:12;-0.70;99.90
8858;DHT22;4465;50.904;4.696;2023-03-01T00:05:45;-0.70;99.90
8858;DHT22;4465;50.904;4.696;2023-03-01T00:08:13;-0.70;99.90
8858;DHT22;4465;50.904;4.696;2023-03-01T00:10:41;-0.60;99.90
8858;DHT22;4465;50.904;4.696;2023-03-01T00:13:07;-0.70;99.90
8858;DHT22;4465;50.904;4.696;2023-03-01T00:15:33;-0.70;99.90
8858;DHT22;4465;50.904;4.696;2023-03-01T00:18:00;-0.70;99.90
8858;DHT22;4465;50.904;4.696;2023-03-01T00:20:26;-0.80;99.90
8858;DHT22;4465;50.904;4.696;2023-03-01T00:22:52;-0.60;99.90
8858;DHT22;4465;50.904;4.696;2023-03-01T00:25:17;-0.80;99.90
8858;DHT22;4465;50.904;4.696;2023-03-01T00:27:43;-0.80;99.90
8858;DHT22;4465;50.904;4.696;2023-03-01T00:30:09;-0.80;99.90
8858;DHT22;4465;50.904;4.696;2023-03-01T00:32:40;-0.80;99.90
8858;DHT22;4465;50.904;4.696;2023-03-01T00:35:08;-0.80;99.90
8858;DHT22;4465;50.904;4.696;2023-03-01T00:37:34;-0.80;99.90
8858;DHT22;4465;50.904;4.696;2023-03-01T00:40:00;-0.80;99.90
8858;DHT22;4465;50.904;4.696;2023-03-01T00:42:25;-0.90;99.90
8858;DHT22;4465;50.904;4.696;2023-03-01T00:44:53;-0.90;99.90
8858;DHT22;4465;50.904;4.696;2023-03-01T00:47:19;-0.80;99.90
8858;DHT22;4465;50.904;4.696;2023-03-01T00:49:45;-0.80;99.90
8858;DHT22;4465;50.904;4.696;2023-03-01T00:52:13;-0.90;99.90
8858;DHT22;4465;50.904;4.696;2023-03-01T00:54:39;-0.90;99.90
8858;DHT22;4465;50.904;4.696;2023-03-01T00:57:04;-0.90;99.90
8858;DHT22;4465;50.904;4.696;2023-03-01T00:59:30;-0.90;99.90
8858;DHT22;4465;50.904;4.696;2023-03-01T01:01:58;-0.90;99.90
8858;DHT22;4465;50.904;4.696;2023-03-01T01:04:26;-0.90;99.90
8858;DHT22;4465;50.904;4.696;2023-03-01T01:06:52;-1.00;99.90
8858;DHT22;4465;50.904;4.696;2023-03-01T01:09:18;-1.00;99.90
8858;DHT22;4465;50.904;4.696;2023-03-01T01:11:50;-1.00;99.90
8858;DHT22;4465;50.904;4.696;2023-03-01T01:14:19;-1.00;99.90
8858;DHT22;4465;50.904;4.696;2023-03-01T01:16:49;-1.00;99.90
8858;DHT22;4465;50.904;4.696;2023-03-01T01:19:18;-1.00;99.90
8858;DHT22;4465;50.904;4.696;2023-03-01T01:21:43;-1.10;99.90
8858;DHT22;4465;50.904;4.696;2023-03-01T01:24:13;-1.00;99.90
8858;DHT22;4465;50.904;4.696;2023-03-01T01:26:39;-1.10;99.90
8858;DHT22;4465;50.904;4.696;2023-03-01T01:29:06;-1.10;99.90
8858;DHT22;4465;50.904;4.696;2023-03-01T01:31:32;-1.10;99.90
8858;DHT22;4465;50.904;4.696;2023-03-01T01:34:01;-1.00;99.90
8858;DHT22;4465;50.904;4.696;2023-03-01T01:36:32;-1.10;99.90
8858;DHT22;4465;50.904;4.696;2023-03-01T01:39:01;-1.10;99.90
8858;DHT22;4465;50.904;4.696;2023-03-01T01:41:27;-1.20;99.90
8858;DHT22;4465;50.904;4.696;2023-03-01T01:46:42;-1.20;99.90
8858;DHT22;4465;50.904;4.696;2023-03-01T01:51:42;-1.20;99.90
8858;DHT22;4465;50.904;4.696;2023-03-01T01:54:12;-1.30;99.90
8858;DHT22;4465;50.904;4.696;2023-03-01T01:56:42;-1.30;99.90
8858;DHT22;4465;50.904;4.696;2023-03-01T01:59:12;-1.30;99.90
8858;DHT22;4465;50.904;4.696;2023-03-01T02:01:39;-1.30;99.90
8858;DHT22;4465;50.904;4.696;2023-03-01T02:04:04;-1.30;99.90
8858;DHT22;4465;50.904;4.696;2023-03-01T02:06:33;-1.30;99.90
8858;DHT22;4465;50.904;4.696;2023-03-01T02:09:02;-1.40;99.90
8858;DHT22;4465;50.904;4.696;2023-03-01T02:11:29;-1.40;99.90
8858;DHT22;4465;50.904;4.696;2023-03-01T02:13:55;-1.40;99.90
8858;DHT22;4465;50.904;4.696;2023-03-01T02:16:21;-1.40;99.90
8858;DHT22;4465;50.904;4.696;2023-03-01T02:18:47;-1.40;99.90
8858;DHT22;4465;50.904;4.696;2023-03-01T02:26:54;-1.50;99.90
8858;DHT22;4465;50.904;4.696;2023-03-01T02:29:26;-1.50;99.90
8858;DHT22;4465;50.904;4.696;2023-03-01T02:31:52;-1.50;99.90
8858;DHT22;4465;50.904;4.696;2023-03-01T02:34:22;-1.40;99.90
8858;DHT22;4465;50.904;4.696;2023-03-01T02:36:55;-1.50;99.90
8858;DHT22;4465;50.904;4.696;2023-03-01T02:39:26;-1.50;99.90
8858;DHT22;4465;50.904;4.696;2023-03-01T02:41:53;-1.50;99.90
8858;DHT22;4465;50.904;4.696;2023-03-01T02:44:20;-1.60;99.90
8858;DHT22;4465;50.904;4.696;2023-03-01T02:46:50;-1.60;99.90
8858;DHT22;4465;50.904;4.696;2023-03-01T02:49:30;-1.60;99.90
8858;DHT22;4465;50.904;4.696;2023-03-01T02:54:28;-1.60;99.90
8858;DHT22;4465;50.904;4.696;2023-03-01T02:56:55;-1.60;99.90
8858;DHT22;4465;50.904;4.696;2023-03-01T02:59:22;-1.60;99.90
8858;DHT22;4465;50.904;4.696;2023-03-01T03:01:50;-1.70;99.90
8858;DHT22;4465;50.904;4.696;2023-03-01T03:04:16;-1.70;99.90
8858;DHT22;4465;50.904;4.696;2023-03-01T03:06:46;-1.70;99.90
8858;DHT22;4465;50.904;4.696;2023-03-01T03:09:13;-1.70;99.90
8858;DHT22;4465;50.904;4.696;2023-03-01T03:11:39;-1.70;99.90
8858;DHT22;4465;50.904;4.696;2023-03-01T03:14:10;-1.70;99.90
8858;DHT22;4465;50.904;4.696;2023-03-01T03:16:43;-1.70;99.90
8858;DHT22;4465;50.904;4.696;2023-03-01T03:19:09;-1.70;99.90
8858;DHT22;4465;50.904;4.696;2023-03-01T03:21:40;-1.70;99.90
8858;DHT22;4465;50.904;4.696;2023-03-01T03:24:05;-1.80;99.90
8858;DHT22;4465;50.904;4.696;2023-03-01T03:26:34;-1.80;99.90
8858;DHT22;4465;50.904;4.696;2023-03-01T03:29:00;-1.80;99.90
8858;DHT22;4465;50.904;4.696;2023-03-01T03:31:27;-1.80;99.90
8858;DHT22;4465;50.904;4.696;2023-03-01T03:33:53;-1.80;99.90
8858;DHT22;4465;50.904;4.696;2023-03-01T03:36:22;-1.90;99.90
8858;DHT22;4465;50.904;4.696;2023-03-01T03:38:48;-1.90;99.90
8858;DHT22;4465;50.904;4.696;2023-03-01T03:41:14;-1.90;99.90
8858;DHT22;4465;50.904;4.696;2023-03-01T03:43:41;-1.90;99.90
8858;DHT22;4465;50.904;4.696;2023-03-01T03:46:08;-1.80;99.90
8858;DHT22;4465;50.904;4.696;2023-03-01T03:48:35;-2.00;99.90
8858;DHT22;4465;50.904;4.696;2023-03-01T03:51:01;-1.90;99.90
8858;DHT22;4465;50.904;4.696;2023-03-01T03:53:31;-2.00;99.90
8858;DHT22;4465;50.904;4.696;2023-03-01T03:55:57;-2.00;99.90
8858;DHT22;4465;50.904;4.696;2023-03-01T03:58:24;-2.00;99.90
8858;DHT22;4465;50.904;4.696;2023-03-01T04:00:52;-2.00;99.90
8858;DHT22;4465;50.904;4.696;2023-03-01T04:03:18;-2.10;99.90
8858;DHT22;4465;50.904;4.696;2023-03-01T04:05:45;-2.10;99.90
8858;DHT22;4465;50.904;4.696;2023-03-01T04:08:11;-2.10;99.90
8858;DHT22;4465;50.904;4.696;2023-03-01T04:10:38;-2.10;99.90
8858;DHT22;4465;50.904;4.696;2023-03-01T04:13:05;-2.10;99.90
8858;DHT22;4465;50.904;4.696;2023-03-01T04:15:30;-2.10;99.90
8858;DHT22;4465;50.904;4.696;2023-03-01T04:17:58;-2.10;99.90
8858;DHT22;4465;50.904;4.696;2023-03-01T04:20:25;-2.20;99.90
8858;DHT22;4465;50.904;4.696;2023-03-01T04:22:53;-2.20;99.90
8858;DHT22;4465;50.904;4.696;2023-03-01T04:25:23;-2.20;99.90
8858;DHT22;4465;50.904;4.696;2023-03-01T04:27:49;-2.20;99.90
8858;DHT22;4465;50.904;4.696;2023-03-01T04:30:14;-2.30;99.90
8858;DHT22;4465;50.904;4.696;2023-03-01T04:32:43;-2.20;99.90
8858;DHT22;4465;50.904;4.696;2023-03-01T04:35:09;-2.20;99.90
8858;DHT22;4465;50.904;4.696;2023-03-01T04:37:40;-2.30;99.90
8858;DHT22;4465;50.904;4.696;2023-03-01T04:40:07;-2.30;99.90
8858;DHT22;4465;50.904;4.696;2023-03-01T04:42:41;-2.30;99.90
8858;DHT22;4465;50.904;4.696;2023-03-01T04:45:08;-2.20;99.90
8858;DHT22;4465;50.904;4.696;2023-03-01T04:47:42;-2.40;99.90
8858;DHT22;4465;50.904;4.696;2023-03-01T04:50:10;-2.40;99.90
8858;DHT22;4465;50.904;4.696;2023-03-01T04:52:36;-2.40;99.90
8858;DHT22;4465;50.904;4.696;2023-03-01T04:55:02;-2.40;99.90
8858;DHT22;4465;50.904;4.696;2023-03-01T04:57:29;-2.40;99.90
8858;DHT22;4465;50.904;4.696;2023-03-01T04:59:57;-2.50;99.90
8858;DHT22;4465;50.904;4.696;2023-03-01T05:02:23;-2.50;99.90
8858;DHT22;4465;50.904;4.696;2023-03-01T05:04:49;-2.50;99.90
8858;DHT22;4465;50.904;4.696;2023-03-01T05:07:15;-2.50;99.90
8858;DHT22;4465;50.904;4.696;2023-03-01T05:09:48;-2.50;99.90
8858;DHT22;4465;50.904;4.696;2023-03-01T05:12:14;-2.50;99.90
8858;DHT22;4465;50.904;4.696;2023-03-01T05:14:40;-2.50;99.90
8858;DHT22;4465;50.904;4.696;2023-03-01T05:17:06;-2.50;99.90
8858;DHT22;4465;50.904;4.696;2023-03-01T05:19:32;-2.60;99.90
8858;DHT22;4465;50.904;4.696;2023-03-01T05:21:58;-2.60;99.90
8858;DHT22;4465;50.904;4.696;2023-03-01T05:24:28;-2.60;99.90
8858;DHT22;4465;50.904;4.696;2023-03-01T05:26:54;-2.60;99.90
8858;DHT22;4465;50.904;4.696;2023-03-01T05:29:20;-2.60;99.90
8858;DHT22;4465;50.904;4.696;2023-03-01T05:31:56;-2.60;99.90
8858;DHT22;4465;50.904;4.696;2023-03-01T05:34:26;-2.60;99.90
8858;DHT22;4465;50.904;4.696;2023-03-01T05:36:53;-2.60;99.90
8858;DHT22;4465;50.904;4.696;2023-03-01T05:39:19;-2.60;99.90
8858;DHT22;4465;50.904;4.696;2023-03-01T05:41:47;-2.60;99.90
8858;DHT22;4465;50.904;4.696;2023-03-01T05:44:13;-2.60;99.90
8858;DHT22;4465;50.904;4.696;2023-03-01T05:46:39;-2.60;99.90
8858;DHT22;4465;50.904;4.696;2023-03-01T05:49:05;-2.60;99.90
8858;DHT22;4465;50.904;4.696;2023-03-01T05:51:30;-2.60;99.90
8858;DHT22;4465;50.904;4.696;2023-03-01T05:53:59;-2.50;99.90
8858;DHT22;4465;50.904;4.696;2023-03-01T05:56:24;-2.60;99.90
8858;DHT22;4465;50.904;4.696;2023-03-01T05:58:51;-2.60;99.90
8858;DHT22;4465;50.904;4.696;2023-03-01T06:01:16;-2.60;99.90
8858;DHT22;4465;50.904;4.696;2023-03-01T06:03:42;-2.60;99.90
8858;DHT22;4465;50.904;4.696;2023-03-01T06:06:08;-2.70;99.90
8858;DHT22;4465;50.904;4.696;2023-03-01T06:08:34;-2.70;99.90
8858;DHT22;4465;50.904;4.696;2023-03-01T06:11:00;-2.50;99.90
8858;DHT22;4465;50.904;4.696;2023-03-01T06:13:26;-2.60;99.90
8858;DHT22;4465;50.904;4.696;2023-03-01T06:15:52;-2.70;99.90
8858;DHT22;4465;50.904;4.696;2023-03-01T06:18:17;-2.70;99.90
8858;DHT22;4465;50.904;4.696;2023-03-01T06:20:43;-2.70;99.90
8858;DHT22;4465;50.904;4.696;2023-03-01T06:23:09;-2.70;99.90
8858;DHT22;4465;50.904;4.696;2023-03-01T06:25:35;-2.70;99.90
8858;DHT22;4465;50.904;4.696;2023-03-01T06:28:03;-2.70;99.90
8858;DHT22;4465;50.904;4.696;2023-03-01T06:30:30;-2.70;99.90
8858;DHT22;4465;50.904;4.696;2023-03-01T06:32:55;-2.70;99.90
8858;DHT22;4465;50.904;4.696;2023-03-01T06:35:26;-2.70;99.90
8858;DHT22;4465;50.904;4.696;2023-03-01T06:37:55;-2.70;99.90
8858;DHT22;4465;50.904;4.696;2023-03-01T06:40:23;-2.70;99.90
8858;DHT22;4465;50.904;4.696;2023-03-01T06:42:50;-2.70;99.90
8858;DHT22;4465;50.904;4.696;2023-03-01T06:45:16;-2.70;99.90
8858;DHT22;4465;50.904;4.696;2023-03-01T06:47:42;-2.70;99.90
8858;DHT22;4465;50.904;4.696;2023-03-01T06:50:08;-2.70;99.90
8858;DHT22;4465;50.904;4.696;2023-03-01T06:52:34;-2.70;99.90
8858;DHT22;4465;50.904;4.696;2023-03-01T06:55:00;-2.60;99.90
8858;DHT22;4465;50.904;4.696;2023-03-01T06:57:35;-2.60;99.90
8858;DHT22;4465;50.904;4.696;2023-03-01T07:00:03;-2.60;99.90
8858;DHT22;4465;50.904;4.696;2023-03-01T07:02:33;-2.60;99.90
8858;DHT22;4465;50.904;4.696;2023-03-01T07:04:59;-2.60;99.90
8858;DHT22;4465;50.904;4.696;2023-03-01T07:07:24;-2.60;99.90
8858;DHT22;4465;50.904;4.696;2023-03-01T07:09:51;-2.40;99.90
8858;DHT22;4465;50.904;4.696;2023-03-01T07:12:17;-2.50;99.90
8858;DHT22;4465;50.904;4.696;2023-03-01T07:14:43;-2.50;99.90
8858;DHT22;4465;50.904;4.696;2023-03-01T07:17:09;-2.40;99.90
8858;DHT22;4465;50.904;4.696;2023-03-01T07:19:35;-2.40;99.90
8858;DHT22;4465;50.904;4.696;2023-03-01T07:22:01;-2.30;99.90
8858;DHT22;4465;50.904;4.696;2023-03-01T07:24:29;-2.40;99.90
8858;DHT22;4465;50.904;4.696;2023-03-01T07:26:55;-2.30;99.90
8858;DHT22;4465;50.904;4.696;2023-03-01T07:29:23;-2.30;99.90
8858;DHT22;4465;50.904;4.696;2023-03-01T07:31:49;-2.20;99.90
8858;DHT22;4465;50.904;4.696;2023-03-01T07:34:15;-2.20;99.90
8858;DHT22;4465;50.904;4.696;2023-03-01T07:36:41;-2.10;99.90
8858;DHT22;4465;50.904;4.696;2023-03-01T07:39:09;-2.10;99.90
8858;DHT22;4465;50.904;4.696;2023-03-01T07:41:35;-2.00;99.90
8858;DHT22;4465;50.904;4.696;2023-03-01T07:44:04;-1.90;99.90
8858;DHT22;4465;50.904;4.696;2023-03-01T07:46:30;-1.80;99.90
8858;DHT22;4465;50.904;4.696;2023-03-01T07:49:02;-1.80;99.90
8858;DHT22;4465;50.904;4.696;2023-03-01T07:51:28;-1.70;99.90
8858;DHT22;4465;50.904;4.696;2023-03-01T07:53:53;-1.60;99.90
8858;DHT22;4465;50.904;4.696;2023-03-01T07:56:22;-1.50;99.90
8858;DHT22;4465;50.904;4.696;2023-03-01T07:58:47;-1.30;99.90
8858;DHT22;4465;50.904;4.696;2023-03-01T08:01:15;-1.10;99.90
8858;DHT22;4465;50.904;4.696;2023-03-01T08:03:42;-0.70;99.90
8858;DHT22;4465;50.904;4.696;2023-03-01T08:06:09;-0.50;99.90
8858;DHT22;4465;50.904;4.696;2023-03-01T08:08:37;-0.10;99.90
8858;DHT22;4465;50.904;4.696;2023-03-01T08:11:04;0.30;99.90
8858;DHT22;4465;50.904;4.696;2023-03-01T08:13:32;0.60;99.90
8858;DHT22;4465;50.904;4.696;2023-03-01T08:16:05;1.00;99.90
8858;DHT22;4465;50.904;4.696;2023-03-01T08:18:31;1.30;99.90
8858;DHT22;4465;50.904;4.696;2023-03-01T08:21:16;1.70;99.90
8858;DHT22;4465;50.904;4.696;2023-03-01T08:23:44;1.90;99.90
8858;DHT22;4465;50.904;4.696;2023-03-01T08:26:14;2.30;99.90
8858;DHT22;4465;50.904;4.696;2023-03-01T08:28:41;2.60;99.90
8858;DHT22;4465;50.904;4.696;2023-03-01T08:31:17;2.80;99.90
8858;DHT22;4465;50.904;4.696;2023-03-01T08:33:43;3.00;99.90
8858;DHT22;4465;50.904;4.696;2023-03-01T08:36:09;3.20;99.90
8858;DHT22;4465;50.904;4.696;2023-03-01T08:38:35;3.50;99.90
8858;DHT22;4465;50.904;4.696;2023-03-01T08:41:01;3.70;99.90
8858;DHT22;4465;50.904;4.696;2023-03-01T08:43:27;3.90;99.90
8858;DHT22;4465;50.904;4.696;2023-03-01T08:45:53;4.00;99.90
8858;DHT22;4465;50.904;4.696;2023-03-01T08:48:19;4.10;99.90
8858;DHT22;4465;50.904;4.696;2023-03-01T08:50:47;4.30;99.90
8858;DHT22;4465;50.904;4.696;2023-03-01T08:53:13;4.40;99.90
8858;DHT22;4465;50.904;4.696;2023-03-01T08:55:38;4.60;99.90
8858;DHT22;4465;50.904;4.696;2023-03-01T08:58:06;4.70;99.90
8858;DHT22;4465;50.904;4.696;2023-03-01T09:00:32;4.70;99.90
8858;DHT22;4465;50.904;4.696;2023-03-01T09:03:00;4.70;99.90
8858;DHT22;4465;50.904;4.696;2023-03-01T09:05:26;4.70;99.90
8858;DHT22;4465;50.904;4.696;2023-03-01T09:07:52;4.70;99.90
8858;DHT22;4465;50.904;4.696;2023-03-01T09:10:20;4.70;99.90
8858;DHT22;4465;50.904;4.696;2023-03-01T09:12:45;4.70;99.90
8858;DHT22;4465;50.904;4.696;2023-03-01T09:15:12;4.70;99.90
8858;DHT22;4465;50.904;4.696;2023-03-01T09:17:38;4.60;99.90
8858;DHT22;4465;50.904;4.696;2023-03-01T09:20:03;4.60;99.90
8858;DHT22;4465;50.904;4.696;2023-03-01T09:22:32;4.60;99.90
8858;DHT22;4465;50.904;4.696;2023-03-01T09:24:58;4.50;99.90
8858;DHT22;4465;50.904;4.696;2023-03-01T09:27:26;4.60;99.90
8858;DHT22;4465;50.904;4.696;2023-03-01T09:29:52;4.60;99.90
8858;DHT22;4465;50.904;4.696;2023-03-01T09:32:18;4.60;99.90
8858;DHT22;4465;50.904;4.696;2023-03-01T09:34:44;4.70;99.90
8858;DHT22;4465;50.904;4.696;2023-03-01T09:37:30;4.80;99.90
8858;DHT22;4465;50.904;4.696;2023-03-01T09:39:59;4.90;99.90
8858;DHT22;4465;50.904;4.696;2023-03-01T09:42:24;5.00;99.90
8858;DHT22;4465;50.904;4.696;2023-03-01T09:45:14;5.10;99.90
8858;DHT22;4465;50.904;4.696;2023-03-01T09:47:37;5.20;99.90
8858;DHT22;4465;50.904;4.696;2023-03-01T09:55:05;5.50;99.90
8858;DHT22;4465;50.904;4.696;2023-03-01T09:57:41;5.60;99.90
8858;DHT22;4465;50.904;4.696;2023-03-01T10:10:27;6.10;99.90
8858;DHT22;4465;50.904;4.696;2023-03-01T10:12:53;6.10;99.90
8858;DHT22;4465;50.904;4.696;2023-03-01T10:15:38;6.10;99.90
8858;DHT22;4465;50.904;4.696;2023-03-01T10:18:12;6.10;99.90
8858;DHT22;4465;50.904;4.696;2023-03-01T10:20:57;6.20;99.90
8858;DHT22;4465;50.904;4.696;2023-03-01T10:23:24;6.30;99.90
8858;DHT22;4465;50.904;4.696;2023-03-01T10:28:26;6.70;99.90
8858;DHT22;4465;50.904;4.696;2023-03-01T10:30:53;6.90;99.90
8858;DHT22;4465;50.904;4.696;2023-03-01T10:33:35;7.20;99.90
8858;DHT22;4465;50.904;4.696;2023-03-01T10:36:02;7.50;99.90
8858;DHT22;4465;50.904;4.696;2023-03-01T10:38:46;7.70;99.90
8858;DHT22;4465;50.904;4.696;2023-03-01T10:41:12;7.90;99.90
8858;DHT22;4465;50.904;4.696;2023-03-01T10:43:55;8.00;99.90
8858;DHT22;4465;50.904;4.696;2023-03-01T10:51:44;8.50;99.90
8858;DHT22;4465;50.904;4.696;2023-03-01T10:56:52;8.90;99.90
8858;DHT22;4465;50.904;4.696;2023-03-01T11:04:31;9.20;99.90
8858;DHT22;4465;50.904;4.696;2023-03-01T11:06:58;9.30;99.90
8858;DHT22;4465;50.904;4.696;2023-03-01T11:09:24;9.30;99.90
8858;DHT22;4465;50.904;4.696;2023-03-01T11:11:53;9.30;99.90
8858;DHT22;4465;50.904;4.696;2023-03-01T11:14:27;9.40;99.90
8858;DHT22;4465;50.904;4.696;2023-03-01T11:19:25;9.50;99.90
8858;DHT22;4465;50.904;4.696;2023-03-01T11:24:18;9.70;99.90
8858;DHT22;4465;50.904;4.696;2023-03-01T11:26:47;9.90;99.90
8858;DHT22;4465;50.904;4.696;2023-03-01T11:31:54;10.30;99.90
8858;DHT22;4465;50.904;4.696;2023-03-01T11:34:23;10.60;99.90
8858;DHT22;4465;50.904;4.696;2023-03-01T11:36:54;10.80;99.90
8858;DHT22;4465;50.904;4.696;2023-03-01T11:39:42;11.10;99.90
8858;DHT22;4465;50.904;4.696;2023-03-01T11:42:15;11.30;99.90
8858;DHT22;4465;50.904;4.696;2023-03-01T11:44:43;11.50;99.90
8858;DHT22;4465;50.904;4.696;2023-03-01T11:57:26;11.90;99.90
8858;DHT22;4465;50.904;4.696;2023-03-01T12:23:33;10.80;99.90
8858;DHT22;4465;50.904;4.696;2023-03-01T12:28:51;11.10;99.90
8858;DHT22;4465;50.904;4.696;2023-03-01T12:36:40;11.80;99.90
8858;DHT22;4465;50.904;4.696;2023-03-01T12:49:32;13.10;99.90
8858;DHT22;4465;50.904;4.696;2023-03-01T12:52:11;13.10;99.90
8858;DHT22;4465;50.904;4.696;2023-03-01T12:54:40;13.20;99.90
8858;DHT22;4465;50.904;4.696;2023-03-01T13:02:36;13.30;99.90
8858;DHT22;4465;50.904;4.696;2023-03-01T13:07:55;13.00;99.90
8858;DHT22;4465;50.904;4.696;2023-03-01T13:17:50;12.40;99.90
8858;DHT22;4465;50.904;4.696;2023-03-01T13:20:17;12.30;99.90
8858;DHT22;4465;50.904;4.696;2023-03-01T13:22:44;12.20;99.90
8858;DHT22;4465;50.904;4.696;2023-03-01T13:25:15;12.10;99.90
8858;DHT22;4465;50.904;4.696;2023-03-01T13:27:41;12.00;99.90
8858;DHT22;4465;50.904;4.696;2023-03-01T13:32:52;11.90;99.90
8858;DHT22;4465;50.904;4.696;2023-03-01T13:37:48;12.00;99.90
8858;DHT22;4465;50.904;4.696;2023-03-01T13:42:48;12.20;99.90
8858;DHT22;4465;50.904;4.696;2023-03-01T13:45:20;12.20;99.90
8858;DHT22;4465;50.904;4.696;2023-03-01T13:47:49;12.20;99.90
8858;DHT22;4465;50.904;4.696;2023-03-01T13:50:16;12.10;99.90
8858;DHT22;4465;50.904;4.696;2023-03-01T13:52:53;12.00;99.90
8858;DHT22;4465;50.904;4.696;2023-03-01T13:55:32;11.90;99.90
8858;DHT22;4465;50.904;4.696;2023-03-01T13:58:01;11.70;99.90
8858;DHT22;4465;50.904;4.696;2023-03-01T14:00:29;11.50;99.90
8858;DHT22;4465;50.904;4.696;2023-03-01T14:03:40;11.40;99.90
8858;DHT22;4465;50.904;4.696;2023-03-01T14:05:58;11.30;99.90
8858;DHT22;4465;50.904;4.696;2023-03-01T14:08:26;11.20;99.90
8858;DHT22;4465;50.904;4.696;2023-03-01T14:18:22;11.10;99.90
8858;DHT22;4465;50.904;4.696;2023-03-01T14:20:51;11.20;99.50
8858;DHT22;4465;50.904;4.696;2023-03-01T14:23:20;11.30;99.90
8858;DHT22;4465;50.904;4.696;2023-03-01T14:25:47;11.40;99.90
8858;DHT22;4465;50.904;4.696;2023-03-01T14:30:49;11.60;99.90
8858;DHT22;4465;50.904;4.696;2023-03-01T14:33:23;11.70;99.90
8858;DHT22;4465;50.904;4.696;2023-03-01T14:36:01;11.60;99.90
8858;DHT22;4465;50.904;4.696;2023-03-01T14:38:35;11.40;99.50
8858;DHT22;4465;50.904;4.696;2023-03-01T14:41:11;11.10;99.50
8858;DHT22;4465;50.904;4.696;2023-03-01T14:43:41;10.90;99.40
8858;DHT22;4465;50.904;4.696;2023-03-01T14:46:24;10.60;99.60
8858;DHT22;4465;50.904;4.696;2023-03-01T14:48:53;10.30;99.30
8858;DHT22;4465;50.904;4.696;2023-03-01T14:51:22;10.10;99.40
8858;DHT22;4465;50.904;4.696;2023-03-01T14:53:48;9.90;99.30
8858;DHT22;4465;50.904;4.696;2023-03-01T14:56:15;9.70;99.30
8858;DHT22;4465;50.904;4.696;2023-03-01T14:58:43;9.40;99.30
8858;DHT22;4465;50.904;4.696;2023-03-01T15:01:15;9.20;99.20
8858;DHT22;4465;50.904;4.696;2023-03-01T15:03:42;9.00;99.30
8858;DHT22;4465;50.904;4.696;2023-03-01T15:06:12;8.90;99.50
8858;DHT22;4465;50.904;4.696;2023-03-01T15:08:41;8.80;99.70
8858;DHT22;4465;50.904;4.696;2023-03-01T15:13:39;8.50;99.80
8858;DHT22;4465;50.904;4.696;2023-03-01T15:18:31;8.30;99.90
8858;DHT22;4465;50.904;4.696;2023-03-01T15:21:05;8.20;99.90
8858;DHT22;4465;50.904;4.696;2023-03-01T15:23:31;8.10;99.90
8858;DHT22;4465;50.904;4.696;2023-03-01T15:25:56;8.10;99.90
8858;DHT22;4465;50.904;4.696;2023-03-01T15:28:35;8.00;99.90
8858;DHT22;4465;50.904;4.696;2023-03-01T15:31:25;8.00;99.90
8858;DHT22;4465;50.904;4.696;2023-03-01T15:33:51;7.90;99.90
8858;DHT22;4465;50.904;4.696;2023-03-01T15:36:31;7.90;99.90
8858;DHT22;4465;50.904;4.696;2023-03-01T15:38:57;7.80;99.90
8858;DHT22;4465;50.904;4.696;2023-03-01T15:41:25;7.70;99.90
8858;DHT22;4465;50.904;4.696;2023-03-01T15:43:54;7.70;99.90
8858;DHT22;4465;50.904;4.696;2023-03-01T15:48:47;7.60;99.90
8858;DHT22;4465;50.904;4.696;2023-03-01T15:51:15;7.60;99.90
8858;DHT22;4465;50.904;4.696;2023-03-01T15:53:42;7.50;99.90
8858;DHT22;4465;50.904;4.696;2023-03-01T15:56:08;7.50;99.90
8858;DHT22;4465;50.904;4.696;2023-03-01T15:58:37;7.40;99.90
8858;DHT22;4465;50.904;4.696;2023-03-01T16:01:08;7.40;99.90
8858;DHT22;4465;50.904;4.696;2023-03-01T16:03:38;7.30;99.90
8858;DHT22;4465;50.904;4.696;2023-03-01T16:06:04;7.30;99.90
8858;DHT22;4465;50.904;4.696;2023-03-01T16:08:29;7.20;99.90
8858;DHT22;4465;50.904;4.696;2023-03-01T16:10:58;7.20;99.90
8858;DHT22;4465;50.904;4.696;2023-03-01T16:13:23;7.20;99.90
8858;DHT22;4465;50.904;4.696;2023-03-01T16:15:50;7.10;99.90
8858;DHT22;4465;50.904;4.696;2023-03-01T16:18:16;7.10;99.90
8858;DHT22;4465;50.904;4.696;2023-03-01T16:20:42;7.10;99.90
8858;DHT22;4465;50.904;4.696;2023-03-01T16:23:09;7.00;99.90
8858;DHT22;4465;50.904;4.696;2023-03-01T16:25:38;7.00;99.90
8858;DHT22;4465;50.904;4.696;2023-03-01T16:28:04;6.90;99.90
8858;DHT22;4465;50.904;4.696;2023-03-01T16:30:34;6.90;99.90
8858;DHT22;4465;50.904;4.696;2023-03-01T16:33:01;6.90;99.90
8858;DHT22;4465;50.904;4.696;2023-03-01T16:35:26;6.80;99.90
8858;DHT22;4465;50.904;4.696;2023-03-01T16:37:52;6.80;99.90
8858;DHT22;4465;50.904;4.696;2023-03-01T16:40:20;6.80;99.90
8858;DHT22;4465;50.904;4.696;2023-03-01T16:42:49;6.70;99.90
8858;DHT22;4465;50.904;4.696;2023-03-01T16:45:15;6.70;99.90
8858;DHT22;4465;50.904;4.696;2023-03-01T16:47:41;6.60;99.90
8858;DHT22;4465;50.904;4.696;2023-03-01T16:50:07;6.60;99.90
8858;DHT22;4465;50.904;4.696;2023-03-01T16:52:35;6.50;99.90
8858;DHT22;4465;50.904;4.696;2023-03-01T16:55:02;6.50;99.90
8858;DHT22;4465;50.904;4.696;2023-03-01T16:57:29;6.50;99.90
8858;DHT22;4465;50.904;4.696;2023-03-01T16:59:55;6.50;99.90
8858;DHT22;4465;50.904;4.696;2023-03-01T17:02:21;6.40;99.90
8858;DHT22;4465;50.904;4.696;2023-03-01T17:04:54;6.40;99.90
8858;DHT22;4465;50.904;4.696;2023-03-01T17:07:20;6.30;99.90
8858;DHT22;4465;50.904;4.696;2023-03-01T17:09:47;6.30;99.90
8858;DHT22;4465;50.904;4.696;2023-03-01T17:12:13;6.20;99.90
8858;DHT22;4465;50.904;4.696;2023-03-01T17:14:39;6.20;99.90
8858;DHT22;4465;50.904;4.696;2023-03-01T17:17:07;6.20;99.90
8858;DHT22;4465;50.904;4.696;2023-03-01T17:19:35;6.10;99.90
8858;DHT22;4465;50.904;4.696;2023-03-01T17:22:06;6.00;99.90
8858;DHT22;4465;50.904;4.696;2023-03-01T17:24:32;6.00;99.90
8858;DHT22;4465;50.904;4.696;2023-03-01T17:27:01;6.00;99.90
8858;DHT22;4465;50.904;4.696;2023-03-01T17:29:27;5.90;99.90
8858;DHT22;4465;50.904;4.696;2023-03-01T17:31:53;5.90;99.90
8858;DHT22;4465;50.904;4.696;2023-03-01T17:34:22;5.80;99.90
8858;DHT22;4465;50.904;4.696;2023-03-01T17:36:48;5.70;99.90
8858;DHT22;4465;50.904;4.696;2023-03-01T17:39:15;5.70;99.90
8858;DHT22;4465;50.904;4.696;2023-03-01T17:41:44;5.70;99.90
8858;DHT22;4465;50.904;4.696;2023-03-01T17:44:10;5.60;99.90
8858;DHT22;4465;50.904;4.696;2023-03-01T17:46:36;5.60;99.90
8858;DHT22;4465;50.904;4.696;2023-03-01T17:49:04;5.50;99.90
8858;DHT22;4465;50.904;4.696;2023-03-01T17:51:30;5.50;99.90
8858;DHT22;4465;50.904;4.696;2023-03-01T17:53:56;5.40;99.90
8858;DHT22;4465;50.904;4.696;2023-03-01T17:56:22;5.40;99.90
8858;DHT22;4465;50.904;4.696;2023-03-01T17:58:48;5.40;99.90
8858;DHT22;4465;50.904;4.696;2023-03-01T18:01:18;5.30;99.90
8858;DHT22;4465;50.904;4.696;2023-03-01T18:03:44;5.30;99.90
8858;DHT22;4465;50.904;4.696;2023-03-01T18:06:14;5.20;99.90
8858;DHT22;4465;50.904;4.696;2023-03-01T18:08:41;5.10;99.90
8858;DHT22;4465;50.904;4.696;2023-03-01T18:11:06;5.10;99.90
8858;DHT22;4465;50.904;4.696;2023-03-01T18:13:35;5.10;99.90
8858;DHT22;4465;50.904;4.696;2023-03-01T18:16:05;5.00;99.90
8858;DHT22;4465;50.904;4.696;2023-03-01T18:18:31;5.00;99.90
8858;DHT22;4465;50.904;4.696;2023-03-01T18:21:00;5.00;99.90
8858;DHT22;4465;50.904;4.696;2023-03-01T18:23:29;4.90;99.90
8858;DHT22;4465;50.904;4.696;2023-03-01T18:26:02;4.90;99.90
8858;DHT22;4465;50.904;4.696;2023-03-01T18:28:28;4.80;99.90
8858;DHT22;4465;50.904;4.696;2023-03-01T18:31:04;4.80;99.90
8858;DHT22;4465;50.904;4.696;2023-03-01T18:33:36;4.70;99.90
8858;DHT22;4465;50.904;4.696;2023-03-01T18:36:02;4.70;99.90
8858;DHT22;4465;50.904;4.696;2023-03-01T18:38:31;4.60;99.90